sensor_id;sensor_type;location;lat;lon;timestamp;temperature;humidity
3758;DHT22;1894;51.038;13.692;2022-10-12T00:02:25;6.20;99.90
3758;DHT22;1894;51.038;13.692;2022-10-12T00:04:52;6.20;99.90
3758;DHT22;1894;51.038;13.692;2022-10-12T00:07:19;6.20;99.90
3758;DHT22;1894;51.038;13.692;2022-10-12T00:09:46;6.10;99.90
3758;DHT22;1894;51.038;13.692;2022-10-12T00:12:13;6.10;99.90
3758;DHT22;1894;51.038;13.692;2022-10-12T00:14:40;6.10;99.90
3758;DHT22;1894;51.038;13.692;2022-10-12T00:17:07;6.10;99.90
3758;DHT22;1894;51.038;13.692;2022-10-12T00:19:34;6.10;99.90
3758;DHT22;1894;51.038;13.692;2022-10-12T00:22:02;6.00;99.90
3758;DHT22;1894;51.038;13.692;2022-10-12T00:24:29;6.00;99.90
3758;DHT22;1894;51.038;13.692;2022-10-12T00:26:56;6.00;99.90
3758;DHT22;1894;51.038;13.692;2022-10-12T00:29:23;5.90;99.90
3758;DHT22;1894;51.038;13.692;2022-10-12T00:31:51;5.90;99.90
3758;DHT22;1894;51.038;13.692;2022-10-12T00:34:18;5.90;99.90
3758;DHT22;1894;51.038;13.692;2022-10-12T00:36:45;5.90;99.90
3758;DHT22;1894;51.038;13.692;2022-10-12T00:39:12;5.90;99.90
3758;DHT22;1894;51.038;13.692;2022-10-12T00:41:41;5.80;99.90
3758;DHT22;1894;51.038;13.692;2022-10-12T00:44:42;5.70;99.90
3758;DHT22;1894;51.038;13.692;2022-10-12T00:52:27;5.60;99.90
3758;DHT22;1894;51.038;13.692;2022-10-12T00:54:59;5.60;99.90
3758;DHT22;1894;51.038;13.692;2022-10-12T00:57:28;5.50;99.90
3758;DHT22;1894;51.038;13.692;2022-10-12T00:59:59;5.50;99.90
3758;DHT22;1894;51.038;13.692;2022-10-12T01:02:31;5.50;99.90
3758;DHT22;1894;51.038;13.692;2022-10-12T01:04:59;5.50;99.90
3758;DHT22;1894;51.038;13.692;2022-10-12T01:07:27;5.50;99.90
3758;DHT22;1894;51.038;13.692;2022-10-12T01:09:54;5.60;99.90
3758;DHT22;1894;51.038;13.692;2022-10-12T01:12:21;5.60;99.90
3758;DHT22;1894;51.038;13.692;2022-10-12T01:14:49;5.60;99.90
3758;DHT22;1894;51.038;13.692;2022-10-12T01:17:40;5.60;99.90
3758;DHT22;1894;51.038;13.692;2022-10-12T01:31:29;5.40;99.90
3758;DHT22;1894;51.038;13.692;2022-10-12T01:34:30;5.40;99.90
3758;DHT22;1894;51.038;13.692;2022-10-12T01:37:14;5.40;99.90
3758;DHT22;1894;51.038;13.692;2022-10-12T01:39:53;5.30;99.90
3758;DHT22;1894;51.038;13.692;2022-10-12T01:42:32;5.30;99.90
3758;DHT22;1894;51.038;13.692;2022-10-12T01:45:17;5.30;99.90
3758;DHT22;1894;51.038;13.692;2022-10-12T01:47:48;5.20;99.90
3758;DHT22;1894;51.038;13.692;2022-10-12T01:50:21;5.20;99.90
3758;DHT22;1894;51.038;13.692;2022-10-12T01:53:13;5.20;99.90
3758;DHT22;1894;51.038;13.692;2022-10-12T02:01:50;5.10;99.90
3758;DHT22;1894;51.038;13.692;2022-10-12T02:07:52;5.10;99.90
3758;DHT22;1894;51.038;13.692;2022-10-12T02:10:53;5.00;99.90
3758;DHT22;1894;51.038;13.692;2022-10-12T02:13:25;5.00;99.90
3758;DHT22;1894;51.038;13.692;2022-10-12T02:15:58;4.90;99.90
3758;DHT22;1894;51.038;13.692;2022-10-12T02:18:28;4.80;99.90
3758;DHT22;1894;51.038;13.692;2022-10-12T02:20:57;4.80;99.90
3758;DHT22;1894;51.038;13.692;2022-10-12T02:23:27;4.80;99.90
3758;DHT22;1894;51.038;13.692;2022-10-12T02:25:55;4.80;99.90
3758;DHT22;1894;51.038;13.692;2022-10-12T02:28:26;4.80;99.90
3758;DHT22;1894;51.038;13.692;2022-10-12T02:31:02;4.80;99.90
3758;DHT22;1894;51.038;13.692;2022-10-12T02:33:35;4.80;99.90
3758;DHT22;1894;51.038;13.692;2022-10-12T02:36:11;4.80;99.90
3758;DHT22;1894;51.038;13.692;2022-10-12T02:38:47;4.80;99.90
3758;DHT22;1894;51.038;13.692;2022-10-12T02:41:24;4.80;99.90
3758;DHT22;1894;51.038;13.692;2022-10-12T02:44:00;4.80;99.90
3758;DHT22;1894;51.038;13.692;2022-10-12T02:46:31;4.80;99.90
3758;DHT22;1894;51.038;13.692;2022-10-12T02:48:59;4.80;99.90
3758;DHT22;1894;51.038;13.692;2022-10-12T02:51:28;4.80;99.90
3758;DHT22;1894;51.038;13.692;2022-10-12T02:53:57;4.70;99.90
3758;DHT22;1894;51.038;13.692;2022-10-12T02:56:24;4.60;99.90
3758;DHT22;1894;51.038;13.692;2022-10-12T02:58:51;4.60;99.90
3758;DHT22;1894;51.038;13.692;2022-10-12T03:01:18;4.70;99.90
3758;DHT22;1894;51.038;13.692;2022-10-12T03:03:45;4.60;99.90
3758;DHT22;1894;51.038;13.692;2022-10-12T03:06:13;4.60;99.90
3758;DHT22;1894;51.038;13.692;2022-10-12T03:08:40;4.60;99.90
3758;DHT22;1894;51.038;13.692;2022-10-12T03:11:09;4.60;99.90
3758;DHT22;1894;51.038;13.692;2022-10-12T03:13:38;4.60;99.90
3758;DHT22;1894;51.038;13.692;2022-10-12T03:16:07;4.50;99.90
3758;DHT22;1894;51.038;13.692;2022-10-12T03:18:36;4.40;99.90
3758;DHT22;1894;51.038;13.692;2022-10-12T03:21:04;4.50;99.90
3758;DHT22;1894;51.038;13.692;2022-10-12T03:23:32;4.50;99.90
3758;DHT22;1894;51.038;13.692;2022-10-12T03:25:59;4.50;99.90
3758;DHT22;1894;51.038;13.692;2022-10-12T03:28:26;4.50;99.90
3758;DHT22;1894;51.038;13.692;2022-10-12T03:30:53;4.50;99.90
3758;DHT22;1894;51.038;13.692;2022-10-12T03:33:21;4.50;99.90
3758;DHT22;1894;51.038;13.692;2022-10-12T03:35:48;4.40;99.90
3758;DHT22;1894;51.038;13.692;2022-10-12T03:38:16;4.40;99.90
3758;DHT22;1894;51.038;13.692;2022-10-12T03:40:45;4.40;99.90
3758;DHT22;1894;51.038;13.692;2022-10-12T03:43:13;4.40;99.90
3758;DHT22;1894;51.038;13.692;2022-10-12T03:45:40;4.40;99.90
3758;DHT22;1894;51.038;13.692;2022-10-12T03:48:08;4.40;99.90
3758;DHT22;1894;51.038;13.692;2022-10-12T03:50:35;4.40;99.90
3758;DHT22;1894;51.038;13.692;2022-10-12T03:53:03;4.30;99.90
3758;DHT22;1894;51.038;13.692;2022-10-12T03:55:32;4.30;99.90
3758;DHT22;1894;51.038;13.692;2022-10-12T03:57:59;4.30;99.90
3758;DHT22;1894;51.038;13.692;2022-10-12T04:00:27;4.30;99.90
3758;DHT22;1894;51.038;13.692;2022-10-12T04:02:54;4.40;99.90
3758;DHT22;1894;51.038;13.692;2022-10-12T04:05:21;4.40;99.90
3758;DHT22;1894;51.038;13.692;2022-10-12T04:07:49;4.30;99.90
3758;DHT22;1894;51.038;13.692;2022-10-12T04:10:16;4.30;99.90
3758;DHT22;1894;51.038;13.692;2022-10-12T04:12:44;4.30;99.90
3758;DHT22;1894;51.038;13.692;2022-10-12T04:15:12;4.30;99.90
3758;DHT22;1894;51.038;13.692;2022-10-12T04:17:40;4.30;99.90
3758;DHT22;1894;51.038;13.692;2022-10-12T04:20:09;4.30;99.90
3758;DHT22;1894;51.038;13.692;2022-10-12T04:22:38;4.40;99.90
3758;DHT22;1894;51.038;13.692;2022-10-12T04:25:06;4.40;99.90
3758;DHT22;1894;51.038;13.692;2022-10-12T04:27:33;4.40;99.90
3758;DHT22;1894;51.038;13.692;2022-10-12T04:30:00;4.50;99.90
3758;DHT22;1894;51.038;13.692;2022-10-12T04:32:27;4.50;99.90
3758;DHT22;1894;51.038;13.692;2022-10-12T04:34:54;4.40;99.90
3758;DHT22;1894;51.038;13.692;2022-10-12T04:37:21;4.40;99.90
3758;DHT22;1894;51.038;13.692;2022-10-12T04:39:48;4.40;99.90
3758;DHT22;1894;51.038;13.692;2022-10-12T04:42:16;4.40;99.90
3758;DHT22;1894;51.038;13.692;2022-10-12T04:44:43;4.40;99.90
3758;DHT22;1894;51.038;13.692;2022-10-12T04:47:10;4.30;99.90
3758;DHT22;1894;51.038;13.692;2022-10-12T04:49:37;4.30;99.90
3758;DHT22;1894;51.038;13.692;2022-10-12T04:52:04;4.30;99.90
3758;DHT22;1894;51.038;13.692;2022-10-12T04:54:31;4.30;99.90
3758;DHT22;1894;51.038;13.692;2022-10-12T04:56:58;4.30;99.90
3758;DHT22;1894;51.038;13.692;2022-10-12T04:59:25;4.30;99.90
3758;DHT22;1894;51.038;13.692;2022-10-12T05:01:53;4.20;99.90
3758;DHT22;1894;51.038;13.692;2022-10-12T05:04:20;4.10;99.90
3758;DHT22;1894;51.038;13.692;2022-10-12T05:06:47;4.10;99.90
3758;DHT22;1894;51.038;13.692;2022-10-12T05:09:14;4.10;99.90
3758;DHT22;1894;51.038;13.692;2022-10-12T05:11:43;4.10;99.90
3758;DHT22;1894;51.038;13.692;2022-10-12T05:14:10;4.10;99.90
3758;DHT22;1894;51.038;13.692;2022-10-12T05:16:37;4.10;99.90
3758;DHT22;1894;51.038;13.692;2022-10-12T05:19:04;4.10;99.90
3758;DHT22;1894;51.038;13.692;2022-10-12T05:21:32;4.10;99.90
3758;DHT22;1894;51.038;13.692;2022-10-12T05:24:00;4.10;99.90
3758;DHT22;1894;51.038;13.692;2022-10-12T05:26:27;4.10;99.90
3758;DHT22;1894;51.038;13.692;2022-10-12T05:28:54;4.10;99.90
3758;DHT22;1894;51.038;13.692;2022-10-12T05:31:21;4.10;99.90
3758;DHT22;1894;51.038;13.692;2022-10-12T05:33:48;4.10;99.90
3758;DHT22;1894;51.038;13.692;2022-10-12T05:36:15;4.10;99.90
3758;DHT22;1894;51.038;13.692;2022-10-12T05:38:42;4.10;99.90
3758;DHT22;1894;51.038;13.692;2022-10-12T05:41:09;4.20;99.90
3758;DHT22;1894;51.038;13.692;2022-10-12T05:43:36;4.20;99.90
3758;DHT22;1894;51.038;13.692;2022-10-12T05:46:03;4.00;99.90
3758;DHT22;1894;51.038;13.692;2022-10-12T05:48:30;4.10;99.90
3758;DHT22;1894;51.038;13.692;2022-10-12T05:50:59;4.20;99.90
3758;DHT22;1894;51.038;13.692;2022-10-12T05:53:26;4.20;99.90
3758;DHT22;1894;51.038;13.692;2022-10-12T05:55:59;4.30;99.90
3758;DHT22;1894;51.038;13.692;2022-10-12T05:58:28;4.20;99.90
3758;DHT22;1894;51.038;13.692;2022-10-12T06:01:12;4.30;99.90
3758;DHT22;1894;51.038;13.692;2022-10-12T06:03:40;4.40;99.90
3758;DHT22;1894;51.038;13.692;2022-10-12T06:06:07;4.50;99.90
3758;DHT22;1894;51.038;13.692;2022-10-12T06:08:34;4.60;99.90
3758;DHT22;1894;51.038;13.692;2022-10-12T06:11:02;4.70;99.90
3758;DHT22;1894;51.038;13.692;2022-10-12T06:13:29;4.70;99.90
3758;DHT22;1894;51.038;13.692;2022-10-12T06:15:56;4.80;99.90
3758;DHT22;1894;51.038;13.692;2022-10-12T06:18:23;5.00;99.90
3758;DHT22;1894;51.038;13.692;2022-10-12T06:20:52;5.00;99.90
3758;DHT22;1894;51.038;13.692;2022-10-12T06:23:40;5.10;99.90
3758;DHT22;1894;51.038;13.692;2022-10-12T06:26:07;5.20;99.90
3758;DHT22;1894;51.038;13.692;2022-10-12T06:28:34;5.30;99.90
3758;DHT22;1894;51.038;13.692;2022-10-12T06:31:01;5.40;99.90
3758;DHT22;1894;51.038;13.692;2022-10-12T06:33:28;5.50;99.90
3758;DHT22;1894;51.038;13.692;2022-10-12T06:35:56;5.70;99.90
3758;DHT22;1894;51.038;13.692;2022-10-12T06:38:23;5.80;99.90
3758;DHT22;1894;51.038;13.692;2022-10-12T06:40:50;5.90;99.90
3758;DHT22;1894;51.038;13.692;2022-10-12T06:43:19;6.10;99.90
3758;DHT22;1894;51.038;13.692;2022-10-12T06:45:51;6.20;99.90
3758;DHT22;1894;51.038;13.692;2022-10-12T06:48:18;6.30;99.90
3758;DHT22;1894;51.038;13.692;2022-10-12T06:50:46;6.40;99.90
3758;DHT22;1894;51.038;13.692;2022-10-12T06:53:13;6.60;99.90
3758;DHT22;1894;51.038;13.692;2022-10-12T06:55:40;6.60;99.90
3758;DHT22;1894;51.038;13.692;2022-10-12T06:58:07;6.80;99.90
3758;DHT22;1894;51.038;13.692;2022-10-12T07:00:35;6.90;99.90
3758;DHT22;1894;51.038;13.692;2022-10-12T07:03:02;7.20;99.90
3758;DHT22;1894;51.038;13.692;2022-10-12T07:05:30;7.30;99.90
3758;DHT22;1894;51.038;13.692;2022-10-12T07:07:58;7.50;99.90
3758;DHT22;1894;51.038;13.692;2022-10-12T07:10:25;7.60;99.90
3758;DHT22;1894;51.038;13.692;2022-10-12T07:12:53;7.70;99.90
3758;DHT22;1894;51.038;13.692;2022-10-12T07:15:20;8.00;99.90
3758;DHT22;1894;51.038;13.692;2022-10-12T07:17:47;8.20;99.90
3758;DHT22;1894;51.038;13.692;2022-10-12T07:20:15;8.20;99.90
3758;DHT22;1894;51.038;13.692;2022-10-12T07:22:42;8.40;99.90
3758;DHT22;1894;51.038;13.692;2022-10-12T07:25:10;8.50;99.90
3758;DHT22;1894;51.038;13.692;2022-10-12T07:27:37;8.60;99.90
3758;DHT22;1894;51.038;13.692;2022-10-12T07:30:05;8.70;99.90
3758;DHT22;1894;51.038;13.692;2022-10-12T07:32:33;8.80;99.90
3758;DHT22;1894;51.038;13.692;2022-10-12T07:35:00;8.70;99.90
3758;DHT22;1894;51.038;13.692;2022-10-12T07:37:27;8.90;99.90
3758;DHT22;1894;51.038;13.692;2022-10-12T07:39:54;8.90;99.90
3758;DHT22;1894;51.038;13.692;2022-10-12T07:42:23;9.00;99.90
3758;DHT22;1894;51.038;13.692;2022-10-12T07:44:51;9.10;99.90
3758;DHT22;1894;51.038;13.692;2022-10-12T07:47:18;9.40;99.90
3758;DHT22;1894;51.038;13.692;2022-10-12T07:49:45;9.30;99.90
3758;DHT22;1894;51.038;13.692;2022-10-12T07:52:12;9.40;99.90
3758;DHT22;1894;51.038;13.692;2022-10-12T07:54:39;9.40;99.90
3758;DHT22;1894;51.038;13.692;2022-10-12T07:57:06;9.50;99.90
3758;DHT22;1894;51.038;13.692;2022-10-12T07:59:34;9.40;99.90
3758;DHT22;1894;51.038;13.692;2022-10-12T08:02:01;9.60;99.90
3758;DHT22;1894;51.038;13.692;2022-10-12T08:04:28;9.70;99.90
3758;DHT22;1894;51.038;13.692;2022-10-12T08:06:55;10.00;99.90
3758;DHT22;1894;51.038;13.692;2022-10-12T08:09:24;10.30;99.90
3758;DHT22;1894;51.038;13.692;2022-10-12T08:11:51;10.40;99.90
3758;DHT22;1894;51.038;13.692;2022-10-12T08:14:18;10.30;99.90
3758;DHT22;1894;51.038;13.692;2022-10-12T08:16:45;10.20;99.90
3758;DHT22;1894;51.038;13.692;2022-10-12T08:19:12;10.40;99.90
3758;DHT22;1894;51.038;13.692;2022-10-12T08:21:40;10.30;99.90
3758;DHT22;1894;51.038;13.692;2022-10-12T08:24:09;10.40;99.90
3758;DHT22;1894;51.038;13.692;2022-10-12T08:26:37;10.40;99.90
3758;DHT22;1894;51.038;13.692;2022-10-12T08:29:05;10.00;99.90
3758;DHT22;1894;51.038;13.692;2022-10-12T08:31:34;10.10;99.90
3758;DHT22;1894;51.038;13.692;2022-10-12T08:34:02;10.50;99.90
3758;DHT22;1894;51.038;13.692;2022-10-12T08:36:29;10.70;99.90
3758;DHT22;1894;51.038;13.692;2022-10-12T08:38:56;10.50;99.90
3758;DHT22;1894;51.038;13.692;2022-10-12T08:47:41;11.10;99.90
3758;DHT22;1894;51.038;13.692;2022-10-12T08:50:38;11.40;99.90
3758;DHT22;1894;51.038;13.692;2022-10-12T08:53:27;11.30;99.90
3758;DHT22;1894;51.038;13.692;2022-10-12T08:55:58;11.30;99.90
3758;DHT22;1894;51.038;13.692;2022-10-12T08:58:36;11.40;99.90
3758;DHT22;1894;51.038;13.692;2022-10-12T09:01:31;11.60;99.90
3758;DHT22;1894;51.038;13.692;2022-10-12T09:06:50;11.90;99.90
3758;DHT22;1894;51.038;13.692;2022-10-12T09:15:32;12.30;99.90
3758;DHT22;1894;51.038;13.692;2022-10-12T09:18:05;12.00;99.90
3758;DHT22;1894;51.038;13.692;2022-10-12T09:20:49;12.00;99.90
3758;DHT22;1894;51.038;13.692;2022-10-12T09:23:26;12.20;99.90
3758;DHT22;1894;51.038;13.692;2022-10-12T09:26:06;12.50;99.90
3758;DHT22;1894;51.038;13.692;2022-10-12T09:28:55;12.50;99.90
3758;DHT22;1894;51.038;13.692;2022-10-12T09:34:48;12.60;99.90
3758;DHT22;1894;51.038;13.692;2022-10-12T09:37:20;12.80;99.90
3758;DHT22;1894;51.038;13.692;2022-10-12T09:39:49;13.10;99.90
3758;DHT22;1894;51.038;13.692;2022-10-12T09:42:17;13.00;99.90
3758;DHT22;1894;51.038;13.692;2022-10-12T09:47:23;13.10;99.90
3758;DHT22;1894;51.038;13.692;2022-10-12T09:50:00;13.20;99.90
3758;DHT22;1894;51.038;13.692;2022-10-12T09:57:43;13.50;99.90
3758;DHT22;1894;51.038;13.692;2022-10-12T10:00:29;13.50;99.90
3758;DHT22;1894;51.038;13.692;2022-10-12T10:03:01;13.40;99.90
3758;DHT22;1894;51.038;13.692;2022-10-12T10:05:33;13.40;99.90
3758;DHT22;1894;51.038;13.692;2022-10-12T10:08:21;13.60;99.90
3758;DHT22;1894;51.038;13.692;2022-10-12T10:10:50;13.90;99.90
3758;DHT22;1894;51.038;13.692;2022-10-12T10:13:20;14.00;99.90
3758;DHT22;1894;51.038;13.692;2022-10-12T10:15:51;14.00;99.90
3758;DHT22;1894;51.038;13.692;2022-10-12T10:18:41;13.90;99.90
3758;DHT22;1894;51.038;13.692;2022-10-12T10:21:12;13.90;99.90
3758;DHT22;1894;51.038;13.692;2022-10-12T10:23:50;13.80;99.90
3758;DHT22;1894;51.038;13.692;2022-10-12T10:26:19;14.00;99.90
3758;DHT22;1894;51.038;13.692;2022-10-12T10:28:49;14.00;99.90
3758;DHT22;1894;51.038;13.692;2022-10-12T10:31:37;14.20;99.90
3758;DHT22;1894;51.038;13.692;2022-10-12T10:36:51;14.50;99.90
3758;DHT22;1894;51.038;13.692;2022-10-12T10:39:44;14.70;99.90
3758;DHT22;1894;51.038;13.692;2022-10-12T10:42:18;14.80;99.90
3758;DHT22;1894;51.038;13.692;2022-10-12T10:44:51;14.90;99.90
3758;DHT22;1894;51.038;13.692;2022-10-12T10:47:23;14.90;99.90
3758;DHT22;1894;51.038;13.692;2022-10-12T10:49:54;14.90;99.90
3758;DHT22;1894;51.038;13.692;2022-10-12T10:52:33;15.10;99.90
3758;DHT22;1894;51.038;13.692;2022-10-12T10:57:45;15.40;99.90
3758;DHT22;1894;51.038;13.692;2022-10-12T11:00:22;15.40;99.90
3758;DHT22;1894;51.038;13.692;2022-10-12T11:05:53;16.20;99.90
3758;DHT22;1894;51.038;13.692;2022-10-12T11:08:26;16.60;99.90
3758;DHT22;1894;51.038;13.692;2022-10-12T11:10:59;17.80;99.90
3758;DHT22;1894;51.038;13.692;2022-10-12T11:13:54;19.50;99.90
3758;DHT22;1894;51.038;13.692;2022-10-12T11:17:00;20.80;99.40
3758;DHT22;1894;51.038;13.692;2022-10-12T11:19:39;21.90;94.50
3758;DHT22;1894;51.038;13.692;2022-10-12T11:22:20;22.90;90.90
3758;DHT22;1894;51.038;13.692;2022-10-12T11:25:11;23.20;86.50
3758;DHT22;1894;51.038;13.692;2022-10-12T11:27:44;24.60;76.30
3758;DHT22;1894;51.038;13.692;2022-10-12T11:30:22;25.40;71.20
3758;DHT22;1894;51.038;13.692;2022-10-12T11:32:54;26.20;68.30
3758;DHT22;1894;51.038;13.692;2022-10-12T11:35:36;27.10;61.60
3758;DHT22;1894;51.038;13.692;2022-10-12T11:38:18;27.90;59.00
3758;DHT22;1894;51.038;13.692;2022-10-12T11:43:55;27.50;55.40
3758;DHT22;1894;51.038;13.692;2022-10-12T11:46:39;28.40;53.90
3758;DHT22;1894;51.038;13.692;2022-10-12T11:49:28;29.00;52.40
3758;DHT22;1894;51.038;13.692;2022-10-12T11:52:04;29.20;51.20
3758;DHT22;1894;51.038;13.692;2022-10-12T11:54:36;29.40;49.70
3758;DHT22;1894;51.038;13.692;2022-10-12T11:57:33;28.80;50.80
3758;DHT22;1894;51.038;13.692;2022-10-12T12:00:22;29.50;49.40
3758;DHT22;1894;51.038;13.692;2022-10-12T12:03:16;30.60;47.30
3758;DHT22;1894;51.038;13.692;2022-10-12T12:05:47;29.80;47.90
3758;DHT22;1894;51.038;13.692;2022-10-12T12:08:22;30.40;47.40
3758;DHT22;1894;51.038;13.692;2022-10-12T12:11:27;30.70;45.30
3758;DHT22;1894;51.038;13.692;2022-10-12T12:16:48;30.40;44.90
3758;DHT22;1894;51.038;13.692;2022-10-12T12:19:41;31.50;43.60
3758;DHT22;1894;51.038;13.692;2022-10-12T12:22:26;32.40;41.90
3758;DHT22;1894;51.038;13.692;2022-10-12T12:32:58;30.40;43.30
3758;DHT22;1894;51.038;13.692;2022-10-12T12:36:05;30.90;43.60
3758;DHT22;1894;51.038;13.692;2022-10-12T12:41:11;32.30;41.60
3758;DHT22;1894;51.038;13.692;2022-10-12T12:43:59;31.70;40.80
3758;DHT22;1894;51.038;13.692;2022-10-12T13:01:00;33.50;38.60
3758;DHT22;1894;51.038;13.692;2022-10-12T13:12:26;31.10;39.10
3758;DHT22;1894;51.038;13.692;2022-10-12T13:21:19;30.20;40.00
3758;DHT22;1894;51.038;13.692;2022-10-12T13:23:54;31.90;39.40
3758;DHT22;1894;51.038;13.692;2022-10-12T13:26:28;32.60;37.60
3758;DHT22;1894;51.038;13.692;2022-10-12T13:28:58;32.90;37.70
3758;DHT22;1894;51.038;13.692;2022-10-12T13:31:40;33.30;37.00
3758;DHT22;1894;51.038;13.692;2022-10-12T13:34:34;33.00;37.00
3758;DHT22;1894;51.038;13.692;2022-10-12T13:37:11;34.20;35.70
3758;DHT22;1894;51.038;13.692;2022-10-12T13:39:41;34.10;35.60
3758;DHT22;1894;51.038;13.692;2022-10-12T13:42:24;33.90;34.60
3758;DHT22;1894;51.038;13.692;2022-10-12T13:44:54;32.60;35.60
3758;DHT22;1894;51.038;13.692;2022-10-12T13:47:28;32.80;36.50
3758;DHT22;1894;51.038;13.692;2022-10-12T13:49:56;32.50;36.30
3758;DHT22;1894;51.038;13.692;2022-10-12T13:52:32;32.20;36.90
3758;DHT22;1894;51.038;13.692;2022-10-12T13:55:00;32.60;36.70
3758;DHT22;1894;51.038;13.692;2022-10-12T13:57:44;32.40;36.70
3758;DHT22;1894;51.038;13.692;2022-10-12T14:00:20;32.70;36.80
3758;DHT22;1894;51.038;13.692;2022-10-12T14:05:30;32.90;36.30
3758;DHT22;1894;51.038;13.692;2022-10-12T14:08:06;32.80;36.30
3758;DHT22;1894;51.038;13.692;2022-10-12T14:10:38;33.30;34.20
3758;DHT22;1894;51.038;13.692;2022-10-12T14:13:12;33.30;34.90
3758;DHT22;1894;51.038;13.692;2022-10-12T14:15:41;33.40;34.70
3758;DHT22;1894;51.038;13.692;2022-10-12T14:18:35;33.20;35.20
3758;DHT22;1894;51.038;13.692;2022-10-12T14:21:14;32.70;35.10
3758;DHT22;1894;51.038;13.692;2022-10-12T14:23:45;32.20;36.10
3758;DHT22;1894;51.038;13.692;2022-10-12T14:29:32;32.20;36.10
3758;DHT22;1894;51.038;13.692;2022-10-12T14:34:42;31.10;37.60
3758;DHT22;1894;51.038;13.692;2022-10-12T14:39:43;32.10;36.20
3758;DHT22;1894;51.038;13.692;2022-10-12T14:44:52;31.30;37.50
3758;DHT22;1894;51.038;13.692;2022-10-12T14:47:39;30.90;38.20
3758;DHT22;1894;51.038;13.692;2022-10-12T14:50:12;31.10;38.70
3758;DHT22;1894;51.038;13.692;2022-10-12T14:52:45;30.60;38.40
3758;DHT22;1894;51.038;13.692;2022-10-12T14:55:22;30.80;40.00
3758;DHT22;1894;51.038;13.692;2022-10-12T14:57:51;30.40;40.40
3758;DHT22;1894;51.038;13.692;2022-10-12T15:00:22;30.40;40.00
3758;DHT22;1894;51.038;13.692;2022-10-12T15:02:51;30.30;40.60
3758;DHT22;1894;51.038;13.692;2022-10-12T15:05:21;29.50;41.00
3758;DHT22;1894;51.038;13.692;2022-10-12T15:07:49;27.70;44.00
3758;DHT22;1894;51.038;13.692;2022-10-12T15:10:19;25.90;48.80
3758;DHT22;1894;51.038;13.692;2022-10-12T15:12:48;24.70;52.10
3758;DHT22;1894;51.038;13.692;2022-10-12T15:15:39;23.80;55.20
3758;DHT22;1894;51.038;13.692;2022-10-12T15:18:10;22.70;59.70
3758;DHT22;1894;51.038;13.692;2022-10-12T15:20:37;21.80;65.70
3758;DHT22;1894;51.038;13.692;2022-10-12T15:23:05;21.10;71.50
3758;DHT22;1894;51.038;13.692;2022-10-12T15:25:46;20.70;76.20
3758;DHT22;1894;51.038;13.692;2022-10-12T15:28:15;20.20;81.50
3758;DHT22;1894;51.038;13.692;2022-10-12T15:30:42;19.80;87.50
3758;DHT22;1894;51.038;13.692;2022-10-12T15:33:30;19.50;91.00
3758;DHT22;1894;51.038;13.692;2022-10-12T15:35:57;19.30;92.30
3758;DHT22;1894;51.038;13.692;2022-10-12T15:38:24;19.10;92.30
3758;DHT22;1894;51.038;13.692;2022-10-12T15:40:51;18.80;94.00
3758;DHT22;1894;51.038;13.692;2022-10-12T15:43:19;18.60;95.20
3758;DHT22;1894;51.038;13.692;2022-10-12T15:45:46;18.40;97.00
3758;DHT22;1894;51.038;13.692;2022-10-12T15:48:13;18.20;98.60
3758;DHT22;1894;51.038;13.692;2022-10-12T15:50:43;18.00;99.90
3758;DHT22;1894;51.038;13.692;2022-10-12T15:53:16;17.90;99.90
3758;DHT22;1894;51.038;13.692;2022-10-12T15:55:53;17.80;99.90
3758;DHT22;1894;51.038;13.692;2022-10-12T15:58:21;17.50;99.90
3758;DHT22;1894;51.038;13.692;2022-10-12T16:00:48;17.10;99.90
3758;DHT22;1894;51.038;13.692;2022-10-12T16:03:17;16.90;99.90
3758;DHT22;1894;51.038;13.692;2022-10-12T16:05:52;16.60;99.90
3758;DHT22;1894;51.038;13.692;2022-10-12T16:08:19;16.40;99.90
3758;DHT22;1894;51.038;13.692;2022-10-12T16:10:46;16.20;99.90
3758;DHT22;1894;51.038;13.692;2022-10-12T16:13:14;16.00;99.90
3758;DHT22;1894;51.038;13.692;2022-10-12T16:15:42;15.90;99.90
3758;DHT22;1894;51.038;13.692;2022-10-12T16:18:10;15.70;99.90
3758;DHT22;1894;51.038;13.692;2022-10-12T16:20:41;15.50;99.90
3758;DHT22;1894;51.038;13.692;2022-10-12T16:23:25;15.40;99.90
3758;DHT22;1894;51.038;13.692;2022-10-12T16:25:58;15.30;99.90
3758;DHT22;1894;51.038;13.692;2022-10-12T16:28:28;15.10;99.90
3758;DHT22;1894;51.038;13.692;2022-10-12T16:30:55;15.10;99.90
3758;DHT22;1894;51.038;13.692;2022-10-12T16:33:22;15.00;99.90
3758;DHT22;1894;51.038;13.692;2022-10-12T16:35:50;14.80;99.90
3758;DHT22;1894;51.038;13.692;2022-10-12T16:38:17;14.60;99.90
3758;DHT22;1894;51.038;13.692;2022-10-12T16:40:48;14.60;99.90
3758;DHT22;1894;51.038;13.692;2022-10-12T16:43:16;14.50;99.90
3758;DHT22;1894;51.038;13.692;2022-10-12T16:45:53;14.40;99.90
3758;DHT22;1894;51.038;13.692;2022-10-12T16:48:20;14.30;99.90
3758;DHT22;1894;51.038;13.692;2022-10-12T16:50:47;14.30;99.90
3758;DHT22;1894;51.038;13.692;2022-10-12T16:53:15;14.10;99.90
3758;DHT22;1894;51.038;13.692;2022-10-12T16:55:42;14.00;99.90
3758;DHT22;1894;51.038;13.692;2022-10-12T16:58:09;13.80;99.90
3758;DHT22;1894;51.038;13.692;2022-10-12T17:00:36;13.70;99.90
3758;DHT22;1894;51.038;13.692;2022-10-12T17:03:05;13.70;99.90
3758;DHT22;1894;51.038;13.692;2022-10-12T17:05:34;13.50;99.90
3758;DHT22;1894;51.038;13.692;2022-10-12T17:08:01;13.40;99.90
3758;DHT22;1894;51.038;13.692;2022-10-12T17:10:29;13.40;99.90
3758;DHT22;1894;51.038;13.692;2022-10-12T17:12:56;13.30;99.90
3758;DHT22;1894;51.038;13.692;2022-10-12T17:15:24;13.30;99.90
3758;DHT22;1894;51.038;13.692;2022-10-12T17:17:51;13.10;99.90
3758;DHT22;1894;51.038;13.692;2022-10-12T17:20:20;13.10;99.90
3758;DHT22;1894;51.038;13.692;2022-10-12T17:22:47;13.00;99.90
3758;DHT22;1894;51.038;13.692;2022-10-12T17:25:14;12.80;99.90
3758;DHT22;1894;51.038;13.692;2022-10-12T17:27:41;12.80;99.90
3758;DHT22;1894;51.038;13.692;2022-10-12T17:30:09;12.60;99.90
3758;DHT22;1894;51.038;13.692;2022-10-12T17:32:37;12.60;99.90
3758;DHT22;1894;51.038;13.692;2022-10-12T17:35:04;12.40;99.90
3758;DHT22;1894;51.038;13.692;2022-10-12T17:37:32;12.30;99.90
3758;DHT22;1894;51.038;13.692;2022-10-12T17:40:02;12.30;99.90
3758;DHT22;1894;51.038;13.692;2022-10-12T17:42:30;12.20;99.90
3758;DHT22;1894;51.038;13.692;2022-10-12T17:44:57;12.10;99.90
3758;DHT22;1894;51.038;13.692;2022-10-12T17:47:24;12.10;99.90
3758;DHT22;1894;51.038;13.692;2022-10-12T17:49:52;12.10;99.90
3758;DHT22;1894;51.038;13.692;2022-10-12T17:52:19;12.00;99.90
3758;DHT22;1894;51.038;13.692;2022-10-12T17:54:46;11.90;99.90
3758;DHT22;1894;51.038;13.692;2022-10-12T17:57:13;11.80;99.90
3758;DHT22;1894;51.038;13.692;2022-10-12T17:59:41;11.80;99.90
3758;DHT22;1894;51.038;13.692;2022-10-12T18:02:09;11.70;99.90
3758;DHT22;1894;51.038;13.692;2022-10-12T18:04:36;11.50;99.90
3758;DHT22;1894;51.038;13.692;2022-10-12T18:07:04;11.50;99.90
3758;DHT22;1894;51.038;13.692;2022-10-12T18:09:31;11.50;99.90
3758;DHT22;1894;51.038;13.692;2022-10-12T18:11:58;11.40;99.90
3758;DHT22;1894;51.038;13.692;2022-10-12T18:14:25;11.40;99.90
3758;DHT22;1894;51.038;13.692;2022-10-12T18:16:52;11.40;99.90
3758;DHT22;1894;51.038;13.692;2022-10-12T18:19:20;11.30;99.90
3758;DHT22;1894;51.038;13.692;2022-10-12T18:21:47;11.30;99.90